sensor_id;sensor_type;location;lat;lon;timestamp;temperature;humidity
49321;DHT22;35817;44.498;0.166;2022-11-20T00:00:10;4.40;99.90
49321;DHT22;35817;44.498;0.166;2022-11-20T00:02:36;4.50;99.90
49321;DHT22;35817;44.498;0.166;2022-11-20T00:05:02;4.50;99.90
49321;DHT22;35817;44.498;0.166;2022-11-20T00:07:27;4.40;99.90
49321;DHT22;35817;44.498;0.166;2022-11-20T00:09:53;4.40;99.90
49321;DHT22;35817;44.498;0.166;2022-11-20T00:12:19;4.40;99.90
49321;DHT22;35817;44.498;0.166;2022-11-20T00:14:44;4.40;99.90
49321;DHT22;35817;44.498;0.166;2022-11-20T00:17:10;4.40;99.90
49321;DHT22;35817;44.498;0.166;2022-11-20T00:19:36;4.40;99.90
49321;DHT22;35817;44.498;0.166;2022-11-20T00:22:01;4.40;99.90
49321;DHT22;35817;44.498;0.166;2022-11-20T00:24:27;4.40;99.90
49321;DHT22;35817;44.498;0.166;2022-11-20T00:26:52;4.30;99.90
49321;DHT22;35817;44.498;0.166;2022-11-20T00:29:18;4.30;99.90
49321;DHT22;35817;44.498;0.166;2022-11-20T00:31:44;4.30;99.90
49321;DHT22;35817;44.498;0.166;2022-11-20T00:34:10;4.30;99.90
49321;DHT22;35817;44.498;0.166;2022-11-20T00:36:35;4.30;99.90
49321;DHT22;35817;44.498;0.166;2022-11-20T00:39:01;4.20;99.90
49321;DHT22;35817;44.498;0.166;2022-11-20T00:41:28;4.20;99.90
49321;DHT22;35817;44.498;0.166;2022-11-20T00:43:55;4.20;99.90
49321;DHT22;35817;44.498;0.166;2022-11-20T00:46:25;4.20;99.90
49321;DHT22;35817;44.498;0.166;2022-11-20T00:48:51;4.20;99.90
49321;DHT22;35817;44.498;0.166;2022-11-20T00:51:19;4.30;99.90
49321;DHT22;35817;44.498;0.166;2022-11-20T00:53:45;4.30;99.90
49321;DHT22;35817;44.498;0.166;2022-11-20T00:56:14;4.20;99.90
49321;DHT22;35817;44.498;0.166;2022-11-20T00:58:42;4.30;99.90
49321;DHT22;35817;44.498;0.166;2022-11-20T01:03:35;4.20;99.90
49321;DHT22;35817;44.498;0.166;2022-11-20T01:06:07;4.20;99.90
49321;DHT22;35817;44.498;0.166;2022-11-20T01:08:34;4.20;99.90
49321;DHT22;35817;44.498;0.166;2022-11-20T01:11:06;4.20;99.90
49321;DHT22;35817;44.498;0.166;2022-11-20T01:13:32;4.20;99.90
49321;DHT22;35817;44.498;0.166;2022-11-20T01:18:33;4.10;99.90
49321;DHT22;35817;44.498;0.166;2022-11-20T01:21:09;4.10;99.90
49321;DHT22;35817;44.498;0.166;2022-11-20T01:23:37;4.10;99.90
49321;DHT22;35817;44.498;0.166;2022-11-20T01:26:05;4.10;99.90
49321;DHT22;35817;44.498;0.166;2022-11-20T01:28:32;4.10;99.90
49321;DHT22;35817;44.498;0.166;2022-11-20T01:30:58;4.10;99.90
49321;DHT22;35817;44.498;0.166;2022-11-20T01:33:24;4.10;99.90
49321;DHT22;35817;44.498;0.166;2022-11-20T01:35:51;4.00;99.90
49321;DHT22;35817;44.498;0.166;2022-11-20T01:38:17;4.00;99.90
49321;DHT22;35817;44.498;0.166;2022-11-20T01:40:43;4.10;99.90
49321;DHT22;35817;44.498;0.166;2022-11-20T01:43:17;4.10;99.90
49321;DHT22;35817;44.498;0.166;2022-11-20T01:51:12;4.10;99.90
49321;DHT22;35817;44.498;0.166;2022-11-20T01:53:41;4.10;99.90
49321;DHT22;35817;44.498;0.166;2022-11-20T01:56:10;4.20;99.90
49321;DHT22;35817;44.498;0.166;2022-11-20T01:58:41;4.20;99.90
49321;DHT22;35817;44.498;0.166;2022-11-20T02:01:07;4.30;99.90
49321;DHT22;35817;44.498;0.166;2022-11-20T02:03:33;4.30;99.90
49321;DHT22;35817;44.498;0.166;2022-11-20T02:08:51;4.40;99.90
49321;DHT22;35817;44.498;0.166;2022-11-20T02:11:17;4.50;99.90
49321;DHT22;35817;44.498;0.166;2022-11-20T02:13:43;4.50;99.90
49321;DHT22;35817;44.498;0.166;2022-11-20T02:16:23;4.50;99.90
49321;DHT22;35817;44.498;0.166;2022-11-20T02:18:50;4.50;99.90
49321;DHT22;35817;44.498;0.166;2022-11-20T02:21:27;4.40;99.90
49321;DHT22;35817;44.498;0.166;2022-11-20T02:24:11;4.40;99.90
49321;DHT22;35817;44.498;0.166;2022-11-20T02:26:49;4.40;99.90
49321;DHT22;35817;44.498;0.166;2022-11-20T02:29:23;4.40;99.90
49321;DHT22;35817;44.498;0.166;2022-11-20T02:31:50;4.30;99.90
49321;DHT22;35817;44.498;0.166;2022-11-20T02:34:16;4.30;99.90
49321;DHT22;35817;44.498;0.166;2022-11-20T02:36:42;4.30;99.90
49321;DHT22;35817;44.498;0.166;2022-11-20T02:39:10;4.30;99.90
49321;DHT22;35817;44.498;0.166;2022-11-20T02:41:37;4.40;99.90
49321;DHT22;35817;44.498;0.166;2022-11-20T02:44:04;4.40;99.90
49321;DHT22;35817;44.498;0.166;2022-11-20T02:46:30;4.50;99.90
49321;DHT22;35817;44.498;0.166;2022-11-20T02:48:56;4.60;99.90
49321;DHT22;35817;44.498;0.166;2022-11-20T02:51:22;4.60;99.90
49321;DHT22;35817;44.498;0.166;2022-11-20T02:53:48;4.60;99.90
49321;DHT22;35817;44.498;0.166;2022-11-20T02:56:13;4.60;99.90
49321;DHT22;35817;44.498;0.166;2022-11-20T02:58:39;4.50;99.90
49321;DHT22;35817;44.498;0.166;2022-11-20T03:01:05;4.50;99.90
49321;DHT22;35817;44.498;0.166;2022-11-20T03:03:30;4.50;99.90
49321;DHT22;35817;44.498;0.166;2022-11-20T03:05:59;4.50;99.90
49321;DHT22;35817;44.498;0.166;2022-11-20T03:08:24;4.50;99.90
49321;DHT22;35817;44.498;0.166;2022-11-20T03:10:51;4.40;99.90
49321;DHT22;35817;44.498;0.166;2022-11-20T03:13:17;4.30;99.90
49321;DHT22;35817;44.498;0.166;2022-11-20T03:15:43;4.30;99.90
49321;DHT22;35817;44.498;0.166;2022-11-20T03:18:09;4.30;99.90
49321;DHT22;35817;44.498;0.166;2022-11-20T03:20:34;4.30;99.90
49321;DHT22;35817;44.498;0.166;2022-11-20T03:23:00;4.30;99.90
49321;DHT22;35817;44.498;0.166;2022-11-20T03:25:26;4.30;99.90
49321;DHT22;35817;44.498;0.166;2022-11-20T03:27:52;4.40;99.90
49321;DHT22;35817;44.498;0.166;2022-11-20T03:30:17;4.30;99.90
49321;DHT22;35817;44.498;0.166;2022-11-20T03:32:43;4.40;99.90
49321;DHT22;35817;44.498;0.166;2022-11-20T03:35:09;4.30;99.90
49321;DHT22;35817;44.498;0.166;2022-11-20T03:37:35;4.40;99.90
49321;DHT22;35817;44.498;0.166;2022-11-20T03:40:01;4.40;99.90
49321;DHT22;35817;44.498;0.166;2022-11-20T03:42:26;4.40;99.90
49321;DHT22;35817;44.498;0.166;2022-11-20T03:45:10;4.40;99.90
49321;DHT22;35817;44.498;0.166;2022-11-20T03:47:36;4.40;99.90
49321;DHT22;35817;44.498;0.166;2022-11-20T03:50:03;4.50;99.90
49321;DHT22;35817;44.498;0.166;2022-11-20T03:52:29;4.50;99.90
49321;DHT22;35817;44.498;0.166;2022-11-20T03:54:54;4.50;99.90
49321;DHT22;35817;44.498;0.166;2022-11-20T03:57:20;4.50;99.90
49321;DHT22;35817;44.498;0.166;2022-11-20T03:59:46;4.60;99.90
49321;DHT22;35817;44.498;0.166;2022-11-20T04:02:11;4.60;99.90
49321;DHT22;35817;44.498;0.166;2022-11-20T04:04:37;4.60;99.90
49321;DHT22;35817;44.498;0.166;2022-11-20T04:07:03;4.70;99.90
49321;DHT22;35817;44.498;0.166;2022-11-20T04:09:29;4.70;99.90
49321;DHT22;35817;44.498;0.166;2022-11-20T04:11:54;4.70;99.90
49321;DHT22;35817;44.498;0.166;2022-11-20T04:14:20;4.80;99.90
49321;DHT22;35817;44.498;0.166;2022-11-20T04:16:46;4.90;99.90
49321;DHT22;35817;44.498;0.166;2022-11-20T04:19:14;4.90;99.90
49321;DHT22;35817;44.498;0.166;2022-11-20T04:21:41;5.00;99.90
49321;DHT22;35817;44.498;0.166;2022-11-20T04:24:07;4.90;99.90
49321;DHT22;35817;44.498;0.166;2022-11-20T04:26:33;5.00;99.90
49321;DHT22;35817;44.498;0.166;2022-11-20T04:28:59;5.00;99.90
49321;DHT22;35817;44.498;0.166;2022-11-20T04:31:29;5.00;99.90
49321;DHT22;35817;44.498;0.166;2022-11-20T04:33:55;5.00;99.90
49321;DHT22;35817;44.498;0.166;2022-11-20T04:36:23;5.00;99.90
49321;DHT22;35817;44.498;0.166;2022-11-20T04:38:56;5.00;99.90
49321;DHT22;35817;44.498;0.166;2022-11-20T04:41:24;5.00;99.90
49321;DHT22;35817;44.498;0.166;2022-11-20T04:43:53;5.10;99.90
49321;DHT22;35817;44.498;0.166;2022-11-20T04:46:25;5.20;99.90
49321;DHT22;35817;44.498;0.166;2022-11-20T04:48:51;5.20;99.90
49321;DHT22;35817;44.498;0.166;2022-11-20T04:51:17;5.20;99.90
49321;DHT22;35817;44.498;0.166;2022-11-20T04:53:43;5.30;99.90
49321;DHT22;35817;44.498;0.166;2022-11-20T04:56:11;5.30;99.90
49321;DHT22;35817;44.498;0.166;2022-11-20T04:58:37;5.30;99.90
49321;DHT22;35817;44.498;0.166;2022-11-20T05:01:10;5.40;99.90
49321;DHT22;35817;44.498;0.166;2022-11-20T05:03:37;5.50;99.90
49321;DHT22;35817;44.498;0.166;2022-11-20T05:06:04;5.50;99.90
49321;DHT22;35817;44.498;0.166;2022-11-20T05:08:31;5.60;99.90
49321;DHT22;35817;44.498;0.166;2022-11-20T05:11:07;5.60;99.90
49321;DHT22;35817;44.498;0.166;2022-11-20T05:13:33;5.70;99.90
49321;DHT22;35817;44.498;0.166;2022-11-20T05:16:10;5.70;99.90
49321;DHT22;35817;44.498;0.166;2022-11-20T05:18:37;5.70;99.90
49321;DHT22;35817;44.498;0.166;2022-11-20T05:21:04;5.80;99.90
49321;DHT22;35817;44.498;0.166;2022-11-20T05:23:31;5.80;99.90
49321;DHT22;35817;44.498;0.166;2022-11-20T05:25:58;5.90;99.90
49321;DHT22;35817;44.498;0.166;2022-11-20T05:28:24;6.00;99.90
49321;DHT22;35817;44.498;0.166;2022-11-20T05:30:50;6.00;99.90
49321;DHT22;35817;44.498;0.166;2022-11-20T05:33:16;6.10;99.90
49321;DHT22;35817;44.498;0.166;2022-11-20T05:35:42;6.10;99.90
49321;DHT22;35817;44.498;0.166;2022-11-20T05:38:08;6.20;99.90
49321;DHT22;35817;44.498;0.166;2022-11-20T05:40:34;6.20;99.90
49321;DHT22;35817;44.498;0.166;2022-11-20T05:43:00;6.30;99.90
49321;DHT22;35817;44.498;0.166;2022-11-20T05:45:26;6.30;99.90
49321;DHT22;35817;44.498;0.166;2022-11-20T05:47:52;6.30;99.90
49321;DHT22;35817;44.498;0.166;2022-11-20T05:50:17;6.40;99.90
49321;DHT22;35817;44.498;0.166;2022-11-20T05:52:43;6.40;99.90
49321;DHT22;35817;44.498;0.166;2022-11-20T05:55:09;6.40;99.90
49321;DHT22;35817;44.498;0.166;2022-11-20T05:57:35;6.50;99.90
49321;DHT22;35817;44.498;0.166;2022-11-20T06:00:01;6.50;99.90
49321;DHT22;35817;44.498;0.166;2022-11-20T06:02:27;6.50;99.90
49321;DHT22;35817;44.498;0.166;2022-11-20T06:04:52;6.50;99.90
49321;DHT22;35817;44.498;0.166;2022-11-20T06:07:18;6.60;99.90
49321;DHT22;35817;44.498;0.166;2022-11-20T06:09:43;6.60;99.90
49321;DHT22;35817;44.498;0.166;2022-11-20T06:12:09;6.60;99.90
49321;DHT22;35817;44.498;0.166;2022-11-20T06:14:35;6.70;99.90
49321;DHT22;35817;44.498;0.166;2022-11-20T06:17:00;6.70;99.90
49321;DHT22;35817;44.498;0.166;2022-11-20T06:19:26;6.70;99.90
49321;DHT22;35817;44.498;0.166;2022-11-20T06:21:52;6.70;99.90
49321;DHT22;35817;44.498;0.166;2022-11-20T06:24:18;6.70;99.90
49321;DHT22;35817;44.498;0.166;2022-11-20T06:26:44;6.80;99.90
49321;DHT22;35817;44.498;0.166;2022-11-20T06:29:09;6.80;99.90
49321;DHT22;35817;44.498;0.166;2022-11-20T06:31:35;6.80;99.90
49321;DHT22;35817;44.498;0.166;2022-11-20T06:34:04;6.90;99.90
49321;DHT22;35817;44.498;0.166;2022-11-20T06:36:31;6.90;99.90
49321;DHT22;35817;44.498;0.166;2022-11-20T06:38:57;7.00;99.90
49321;DHT22;35817;44.498;0.166;2022-11-20T06:41:23;7.00;99.90
49321;DHT22;35817;44.498;0.166;2022-11-20T06:43:49;7.00;99.90
49321;DHT22;35817;44.498;0.166;2022-11-20T06:46:16;7.00;99.90
49321;DHT22;35817;44.498;0.166;2022-11-20T06:48:45;7.10;99.90
49321;DHT22;35817;44.498;0.166;2022-11-20T06:51:11;7.20;99.90
49321;DHT22;35817;44.498;0.166;2022-11-20T06:53:37;7.10;99.90
49321;DHT22;35817;44.498;0.166;2022-11-20T06:56:03;7.10;99.90
49321;DHT22;35817;44.498;0.166;2022-11-20T06:58:31;7.10;99.90
49321;DHT22;35817;44.498;0.166;2022-11-20T07:01:06;7.10;99.90
49321;DHT22;35817;44.498;0.166;2022-11-20T07:03:32;7.20;99.90
49321;DHT22;35817;44.498;0.166;2022-11-20T07:06:00;7.20;99.90
49321;DHT22;35817;44.498;0.166;2022-11-20T07:08:26;7.20;99.90
49321;DHT22;35817;44.498;0.166;2022-11-20T07:10:52;7.20;99.90
49321;DHT22;35817;44.498;0.166;2022-11-20T07:13:18;7.20;99.90
49321;DHT22;35817;44.498;0.166;2022-11-20T07:15:44;7.20;99.90
49321;DHT22;35817;44.498;0.166;2022-11-20T07:18:09;7.20;99.90
49321;DHT22;35817;44.498;0.166;2022-11-20T07:20:35;7.20;99.90
49321;DHT22;35817;44.498;0.166;2022-11-20T07:23:01;7.10;99.90
49321;DHT22;35817;44.498;0.166;2022-11-20T07:25:28;7.10;99.90
49321;DHT22;35817;44.498;0.166;2022-11-20T07:28:00;7.10;99.90
49321;DHT22;35817;44.498;0.166;2022-11-20T07:30:27;7.10;99.90
49321;DHT22;35817;44.498;0.166;2022-11-20T07:32:53;7.10;99.90
49321;DHT22;35817;44.498;0.166;2022-11-20T07:35:19;7.10;99.90
49321;DHT22;35817;44.498;0.166;2022-11-20T07:37:45;7.10;99.90
49321;DHT22;35817;44.498;0.166;2022-11-20T07:40:13;7.20;99.90
49321;DHT22;35817;44.498;0.166;2022-11-20T07:42:39;7.20;99.90
49321;DHT22;35817;44.498;0.166;2022-11-20T07:45:05;7.20;99.90
49321;DHT22;35817;44.498;0.166;2022-11-20T07:47:39;7.30;99.90
49321;DHT22;35817;44.498;0.166;2022-11-20T07:50:05;7.40;99.90
49321;DHT22;35817;44.498;0.166;2022-11-20T07:52:31;7.50;99.90
49321;DHT22;35817;44.498;0.166;2022-11-20T07:54:57;7.60;99.90
49321;DHT22;35817;44.498;0.166;2022-11-20T07:57:22;7.70;99.90
49321;DHT22;35817;44.498;0.166;2022-11-20T07:59:48;7.80;99.90
49321;DHT22;35817;44.498;0.166;2022-11-20T08:02:14;7.90;99.90
49321;DHT22;35817;44.498;0.166;2022-11-20T08:04:39;8.00;99.90
49321;DHT22;35817;44.498;0.166;2022-11-20T08:07:05;8.10;99.90
49321;DHT22;35817;44.498;0.166;2022-11-20T08:09:31;8.10;99.90
49321;DHT22;35817;44.498;0.166;2022-11-20T08:11:57;8.10;99.90
49321;DHT22;35817;44.498;0.166;2022-11-20T08:14:42;8.20;99.90
49321;DHT22;35817;44.498;0.166;2022-11-20T08:17:07;8.20;99.90
49321;DHT22;35817;44.498;0.166;2022-11-20T08:19:33;8.30;99.90
49321;DHT22;35817;44.498;0.166;2022-11-20T08:21:59;8.30;99.90
49321;DHT22;35817;44.498;0.166;2022-11-20T08:24:24;8.40;99.90
49321;DHT22;35817;44.498;0.166;2022-11-20T08:26:52;8.40;99.90
49321;DHT22;35817;44.498;0.166;2022-11-20T08:29:18;8.50;99.90
49321;DHT22;35817;44.498;0.166;2022-11-20T08:31:43;8.50;99.90
49321;DHT22;35817;44.498;0.166;2022-11-20T08:34:09;8.60;99.90
49321;DHT22;35817;44.498;0.166;2022-11-20T08:36:35;8.70;99.90
49321;DHT22;35817;44.498;0.166;2022-11-20T08:39:02;8.70;99.90
49321;DHT22;35817;44.498;0.166;2022-11-20T08:41:28;8.80;99.90
49321;DHT22;35817;44.498;0.166;2022-11-20T08:43:57;8.90;99.90
49321;DHT22;35817;44.498;0.166;2022-11-20T08:46:24;9.00;99.90
49321;DHT22;35817;44.498;0.166;2022-11-20T08:48:50;9.10;99.90
49321;DHT22;35817;44.498;0.166;2022-11-20T08:51:17;9.20;99.90
49321;DHT22;35817;44.498;0.166;2022-11-20T08:53:43;9.50;99.90
49321;DHT22;35817;44.498;0.166;2022-11-20T08:56:08;9.70;99.90
49321;DHT22;35817;44.498;0.166;2022-11-20T08:58:37;9.90;99.90
49321;DHT22;35817;44.498;0.166;2022-11-20T09:01:03;10.00;99.90
49321;DHT22;35817;44.498;0.166;2022-11-20T09:03:29;10.20;99.90
49321;DHT22;35817;44.498;0.166;2022-11-20T09:06:03;10.30;99.90
49321;DHT22;35817;44.498;0.166;2022-11-20T09:08:29;10.40;99.90
49321;DHT22;35817;44.498;0.166;2022-11-20T09:10:57;10.90;99.90
49321;DHT22;35817;44.498;0.166;2022-11-20T09:13:24;11.30;99.90
49321;DHT22;35817;44.498;0.166;2022-11-20T09:15:58;11.60;99.90
49321;DHT22;35817;44.498;0.166;2022-11-20T09:18:25;11.70;99.90
49321;DHT22;35817;44.498;0.166;2022-11-20T09:20:51;11.70;99.90
49321;DHT22;35817;44.498;0.166;2022-11-20T09:23:17;11.80;99.90
49321;DHT22;35817;44.498;0.166;2022-11-20T09:25:43;11.80;99.90
49321;DHT22;35817;44.498;0.166;2022-11-20T09:28:09;11.70;99.90
49321;DHT22;35817;44.498;0.166;2022-11-20T09:30:35;11.50;99.90
49321;DHT22;35817;44.498;0.166;2022-11-20T09:33:00;11.30;99.90
49321;DHT22;35817;44.498;0.166;2022-11-20T09:35:26;11.20;99.90
49321;DHT22;35817;44.498;0.166;2022-11-20T09:37:52;11.00;99.90
49321;DHT22;35817;44.498;0.166;2022-11-20T09:40:23;10.90;99.90
49321;DHT22;35817;44.498;0.166;2022-11-20T09:43:15;11.00;99.90
49321;DHT22;35817;44.498;0.166;2022-11-20T09:48:36;11.10;99.90
49321;DHT22;35817;44.498;0.166;2022-11-20T09:56:17;11.00;99.90
49321;DHT22;35817;44.498;0.166;2022-11-20T09:58:50;11.00;99.90
49321;DHT22;35817;44.498;0.166;2022-11-20T10:01:21;11.00;99.90
49321;DHT22;35817;44.498;0.166;2022-11-20T10:04:04;11.00;99.90
49321;DHT22;35817;44.498;0.166;2022-11-20T10:06:39;11.10;99.90
49321;DHT22;35817;44.498;0.166;2022-11-20T10:12:00;11.10;99.90
49321;DHT22;35817;44.498;0.166;2022-11-20T10:17:33;11.30;99.90
49321;DHT22;35817;44.498;0.166;2022-11-20T10:20:19;11.40;99.90
49321;DHT22;35817;44.498;0.166;2022-11-20T10:23:00;11.50;99.90
49321;DHT22;35817;44.498;0.166;2022-11-20T10:25:44;11.60;99.90
49321;DHT22;35817;44.498;0.166;2022-11-20T10:31:11;11.70;99.90
49321;DHT22;35817;44.498;0.166;2022-11-20T10:33:43;11.70;99.90
49321;DHT22;35817;44.498;0.166;2022-11-20T10:36:37;11.70;99.90
49321;DHT22;35817;44.498;0.166;2022-11-20T10:39:10;11.60;99.90
49321;DHT22;35817;44.498;0.166;2022-11-20T10:41:41;11.50;99.90
49321;DHT22;35817;44.498;0.166;2022-11-20T10:44:21;11.50;99.90
49321;DHT22;35817;44.498;0.166;2022-11-20T10:47:13;11.40;99.90
49321;DHT22;35817;44.498;0.166;2022-11-20T10:49:40;11.30;99.90
49321;DHT22;35817;44.498;0.166;2022-11-20T11:00:19;11.40;99.90
49321;DHT22;35817;44.498;0.166;2022-11-20T11:02:48;11.40;99.90
49321;DHT22;35817;44.498;0.166;2022-11-20T11:05:37;11.40;99.90
49321;DHT22;35817;44.498;0.166;2022-11-20T11:08:12;11.50;99.90
49321;DHT22;35817;44.498;0.166;2022-11-20T11:10:56;11.50;99.90
49321;DHT22;35817;44.498;0.166;2022-11-20T11:13:24;11.40;99.90
49321;DHT22;35817;44.498;0.166;2022-11-20T11:15:50;11.40;99.90
49321;DHT22;35817;44.498;0.166;2022-11-20T11:18:28;11.30;99.90
49321;DHT22;35817;44.498;0.166;2022-11-20T11:20:56;11.30;99.90
49321;DHT22;35817;44.498;0.166;2022-11-20T11:23:42;11.30;99.90
49321;DHT22;35817;44.498;0.166;2022-11-20T11:26:21;11.40;99.90
49321;DHT22;35817;44.498;0.166;2022-11-20T11:29:02;11.30;99.90
49321;DHT22;35817;44.498;0.166;2022-11-20T11:31:32;11.30;99.90
49321;DHT22;35817;44.498;0.166;2022-11-20T11:34:13;11.30;99.90
49321;DHT22;35817;44.498;0.166;2022-11-20T11:36:39;11.30;99.90
49321;DHT22;35817;44.498;0.166;2022-11-20T11:39:10;11.30;99.90
49321;DHT22;35817;44.498;0.166;2022-11-20T11:41:37;11.40;99.90
49321;DHT22;35817;44.498;0.166;2022-11-20T11:47:19;11.40;99.90
49321;DHT22;35817;44.498;0.166;2022-11-20T11:49:46;11.40;99.90
49321;DHT22;35817;44.498;0.166;2022-11-20T11:52:20;11.50;99.90
49321;DHT22;35817;44.498;0.166;2022-11-20T11:54:57;11.50;99.90
49321;DHT22;35817;44.498;0.166;2022-11-20T11:57:41;11.50;99.90
49321;DHT22;35817;44.498;0.166;2022-11-20T12:00:14;11.60;99.90
49321;DHT22;35817;44.498;0.166;2022-11-20T12:05:39;11.70;99.90
49321;DHT22;35817;44.498;0.166;2022-11-20T12:08:15;11.70;99.90
49321;DHT22;35817;44.498;0.166;2022-11-20T12:13:36;11.80;99.90
49321;DHT22;35817;44.498;0.166;2022-11-20T12:16:04;11.80;99.90
49321;DHT22;35817;44.498;0.166;2022-11-20T12:18:30;11.80;99.90
49321;DHT22;35817;44.498;0.166;2022-11-20T12:43:23;14.10;99.90
49321;DHT22;35817;44.498;0.166;2022-11-20T12:51:39;14.50;99.90
49321;DHT22;35817;44.498;0.166;2022-11-20T12:54:46;14.70;99.90
49321;DHT22;35817;44.498;0.166;2022-11-20T13:00:09;14.80;99.90
49321;DHT22;35817;44.498;0.166;2022-11-20T13:07:51;15.40;99.90
49321;DHT22;35817;44.498;0.166;2022-11-20T13:10:28;15.60;99.90
49321;DHT22;35817;44.498;0.166;2022-11-20T13:15:37;16.10;99.90
49321;DHT22;35817;44.498;0.166;2022-11-20T13:18:10;16.40;99.90
49321;DHT22;35817;44.498;0.166;2022-11-20T13:20:43;16.70;99.90
49321;DHT22;35817;44.498;0.166;2022-11-20T13:23:10;17.20;99.90
49321;DHT22;35817;44.498;0.166;2022-11-20T13:25:37;17.40;99.90
49321;DHT22;35817;44.498;0.166;2022-11-20T13:30:35;18.20;97.80
49321;DHT22;35817;44.498;0.166;2022-11-20T13:33:23;18.60;95.40
49321;DHT22;35817;44.498;0.166;2022-11-20T13:36:03;18.70;93.70
49321;DHT22;35817;44.498;0.166;2022-11-20T13:38:44;18.70;93.60
49321;DHT22;35817;44.498;0.166;2022-11-20T13:41:11;19.00;92.90
49321;DHT22;35817;44.498;0.166;2022-11-20T13:43:58;19.10;91.80
49321;DHT22;35817;44.498;0.166;2022-11-20T13:46:39;19.00;90.80
49321;DHT22;35817;44.498;0.166;2022-11-20T13:49:16;19.00;89.40
49321;DHT22;35817;44.498;0.166;2022-11-20T13:51:45;18.90;90.40
49321;DHT22;35817;44.498;0.166;2022-11-20T13:54:36;19.10;90.00
49321;DHT22;35817;44.498;0.166;2022-11-20T13:59:57;18.60;88.70
49321;DHT22;35817;44.498;0.166;2022-11-20T14:02:26;18.60;88.70
49321;DHT22;35817;44.498;0.166;2022-11-20T14:04:56;18.60;88.00
49321;DHT22;35817;44.498;0.166;2022-11-20T14:07:27;18.20;86.40
49321;DHT22;35817;44.498;0.166;2022-11-20T14:09:57;17.60;87.20
49321;DHT22;35817;44.498;0.166;2022-11-20T14:12:28;17.20;89.10
49321;DHT22;35817;44.498;0.166;2022-11-20T14:14:55;16.90;89.90
49321;DHT22;35817;44.498;0.166;2022-11-20T14:19:54;16.40;91.00
49321;DHT22;35817;44.498;0.166;2022-11-20T14:22:23;16.10;91.60
49321;DHT22;35817;44.498;0.166;2022-11-20T14:25:18;15.90;92.40
49321;DHT22;35817;44.498;0.166;2022-11-20T14:27:53;15.70;92.90
49321;DHT22;35817;44.498;0.166;2022-11-20T14:30:26;15.50;92.70
49321;DHT22;35817;44.498;0.166;2022-11-20T14:32:54;15.30;93.10
49321;DHT22;35817;44.498;0.166;2022-11-20T14:35:29;15.10;93.70
49321;DHT22;35817;44.498;0.166;2022-11-20T14:37:55;15.00;94.40
49321;DHT22;35817;44.498;0.166;2022-11-20T14:40:32;14.80;94.60
49321;DHT22;35817;44.498;0.166;2022-11-20T14:43:02;14.50;94.90
49321;DHT22;35817;44.498;0.166;2022-11-20T14:45:30;14.30;95.20
49321;DHT22;35817;44.498;0.166;2022-11-20T14:47:57;14.10;95.50
49321;DHT22;35817;44.498;0.166;2022-11-20T14:50:28;13.90;96.00
49321;DHT22;35817;44.498;0.166;2022-11-20T14:52:56;13.80;96.50
49321;DHT22;35817;44.498;0.166;2022-11-20T14:55:30;13.60;97.30
49321;DHT22;35817;44.498;0.166;2022-11-20T14:58:02;13.50;98.00
49321;DHT22;35817;44.498;0.166;2022-11-20T15:00:29;13.40;98.80
49321;DHT22;35817;44.498;0.166;2022-11-20T15:02:56;13.20;99.70
49321;DHT22;35817;44.498;0.166;2022-11-20T15:08:10;13.20;99.90
49321;DHT22;35817;44.498;0.166;2022-11-20T15:10:36;13.20;99.90
49321;DHT22;35817;44.498;0.166;2022-11-20T15:13:12;13.30;99.90
49321;DHT22;35817;44.498;0.166;2022-11-20T15:15:49;13.50;99.90
49321;DHT22;35817;44.498;0.166;2022-11-20T15:18:20;13.60;99.90
49321;DHT22;35817;44.498;0.166;2022-11-20T15:20:47;13.60;99.90
49321;DHT22;35817;44.498;0.166;2022-11-20T15:23:16;13.70;99.90
49321;DHT22;35817;44.498;0.166;2022-11-20T15:25:45;13.60;99.90
49321;DHT22;35817;44.498;0.166;2022-11-20T15:28:18;13.60;99.90
49321;DHT22;35817;44.498;0.166;2022-11-20T15:30:45;13.50;99.90
49321;DHT22;35817;44.498;0.166;2022-11-20T15:33:11;13.50;99.90
49321;DHT22;35817;44.498;0.166;2022-11-20T15:35:38;13.40;99.90
49321;DHT22;35817;44.498;0.166;2022-11-20T15:38:03;13.30;99.90
49321;DHT22;35817;44.498;0.166;2022-11-20T15:40:29;13.20;99.90
49321;DHT22;35817;44.498;0.166;2022-11-20T15:42:55;13.20;99.90
49321;DHT22;35817;44.498;0.166;2022-11-20T15:48:00;13.10;99.90
49321;DHT22;35817;44.498;0.166;2022-11-20T15:50:33;13.10;99.90
49321;DHT22;35817;44.498;0.166;2022-11-20T15:53:00;13.10;99.90
49321;DHT22;35817;44.498;0.166;2022-11-20T15:55:26;13.10;99.90
49321;DHT22;35817;44.498;0.166;2022-11-20T15:57:52;13.00;99.90
49321;DHT22;35817;44.498;0.166;2022-11-20T16:00:18;13.00;99.90
49321;DHT22;35817;44.498;0.166;2022-11-20T16:02:43;12.90;99.90
49321;DHT22;35817;44.498;0.166;2022-11-20T16:05:11;12.80;99.90
49321;DHT22;35817;44.498;0.166;2022-11-20T16:07:37;12.80;99.90
49321;DHT22;35817;44.498;0.166;2022-11-20T16:10:04;12.80;99.90
49321;DHT22;35817;44.498;0.166;2022-11-20T16:12:29;12.70;99.90
49321;DHT22;35817;44.498;0.166;2022-11-20T16:15:14;12.70;99.90
49321;DHT22;35817;44.498;0.166;2022-11-20T16:17:58;12.60;99.90
49321;DHT22;35817;44.498;0.166;2022-11-20T16:20:23;12.60;99.90
49321;DHT22;35817;44.498;0.166;2022-11-20T16:22:49;12.50;99.90
49321;DHT22;35817;44.498;0.166;2022-11-20T16:25:15;12.50;99.90
49321;DHT22;35817;44.498;0.166;2022-11-20T16:27:42;12.40;99.90
49321;DHT22;35817;44.498;0.166;2022-11-20T16:30:08;12.30;99.90
49321;DHT22;35817;44.498;0.166;2022-11-20T16:32:34;12.30;99.90
49321;DHT22;35817;44.498;0.166;2022-11-20T16:35:00;12.20;99.90
49321;DHT22;35817;44.498;0.166;2022-11-20T16:37:26;12.10;99.90
49321;DHT22;35817;44.498;0.166;2022-11-20T16:39:51;12.10;99.90
49321;DHT22;35817;44.498;0.166;2022-11-20T16:42:17;12.00;99.90
49321;DHT22;35817;44.498;0.166;2022-11-20T16:44:45;11.90;99.90
49321;DHT22;35817;44.498;0.166;2022-11-20T16:47:11;11.80;99.90
49321;DHT22;35817;44.498;0.166;2022-11-20T16:49:36;11.80;99.90
49321;DHT22;35817;44.498;0.166;2022-11-20T16:52:02;11.70;99.90
49321;DHT22;35817;44.498;0.166;2022-11-20T16:54:28;11.60;99.90
49321;DHT22;35817;44.498;0.166;2022-11-20T16:56:53;11.50;99.90
49321;DHT22;35817;44.498;0.166;2022-11-20T16:59:19;11.40;99.90
49321;DHT22;35817;44.498;0.166;2022-11-20T17:01:45;11.30;99.90
49321;DHT22;35817;44.498;0.166;2022-11-20T17:04:11;11.30;99.90
49321;DHT22;35817;44.498;0.166;2022-11-20T17:06:38;11.20;99.90
49321;DHT22;35817;44.498;0.166;2022-11-20T17:09:05;11.10;99.90
49321;DHT22;35817;44.498;0.166;2022-11-20T17:11:34;11.00;99.90
49321;DHT22;35817;44.498;0.166;2022-11-20T17:14:00;11.00;99.90
49321;DHT22;35817;44.498;0.166;2022-11-20T17:16:29;10.90;99.90
49321;DHT22;35817;44.498;0.166;2022-11-20T17:18:57;10.90;99.90
49321;DHT22;35817;44.498;0.166;2022-11-20T17:21:24;10.80;99.90
49321;DHT22;35817;44.498;0.166;2022-11-20T17:23:50;10.80;99.90
49321;DHT22;35817;44.498;0.166;2022-11-20T17:26:21;10.80;99.90
49321;DHT22;35817;44.498;0.166;2022-11-20T17:28:55;10.90;99.90